Goldston, North Carolina
Current Conditions -  °F | °C
As of 11:15 AM on Thursday 18 Dec 2014 (Local Time) from K5W8 Reporting Station
Clear Clear  
Wind Chill: 45°   Ceiling: Unl
Heat Index: 47°   Visibility: 10mi
Dew Point: 26°   Wind: 5mph
Humidity: 44%   Direction: 360°N
Pressure: 30.17"   Gusts: NA
Location:  35.59°N, 79.33°W
Report Text: K5W8 181615Z AUTO 36004KT 10SM CLR 08/M03 A3017 RMK AO2 T00831034
Loading
Personal Weather Stations






























Interactive Weather Map New forecast layout! Learn more

10-Day Weather Forecast

Advertisements
Track Severe Weather on mobile